createdAt,value
2017-03-28T00:00:38.465Z,1014.26
2017-03-28T00:01:19.094Z,1014.26
2017-03-28T00:01:59.724Z,1014.25
2017-03-28T00:02:40.340Z,1014.23
2017-03-28T00:03:20.974Z,1014.25
2017-03-28T00:04:01.625Z,1014.22
2017-03-28T00:04:42.286Z,1014.18
2017-03-28T00:05:22.912Z,1014.21
2017-03-28T00:06:03.543Z,1014.23
2017-03-28T00:06:44.207Z,1014.18
2017-03-28T00:07:24.844Z,1014.21
2017-03-28T00:08:05.489Z,1014.22
2017-03-28T00:08:46.117Z,1014.21
2017-03-28T00:09:26.749Z,1014.24
2017-03-28T00:10:07.388Z,1014.24
2017-03-28T00:10:48.006Z,1014.2
2017-03-28T00:11:28.659Z,1014.25
2017-03-28T00:12:09.277Z,1014.2
2017-03-28T00:12:49.922Z,1014.22
2017-03-28T00:13:30.570Z,1014.21
2017-03-28T00:14:11.194Z,1014.23
2017-03-28T00:14:51.824Z,1014.21
2017-03-28T00:15:32.465Z,1014.21
2017-03-28T00:16:13.126Z,1014.2
2017-03-28T00:16:53.771Z,1014.2
2017-03-28T00:17:34.404Z,1014.21
2017-03-28T00:18:15.037Z,1014.24
2017-03-28T00:18:55.698Z,1014.25
2017-03-28T00:19:36.329Z,1014.23
2017-03-28T00:20:16.953Z,1014.22
2017-03-28T00:20:57.588Z,1014.25
2017-03-28T00:21:38.218Z,1014.28
2017-03-28T00:22:18.857Z,1014.28
2017-03-28T00:22:59.484Z,1014.25
2017-03-28T00:23:40.151Z,1014.24
2017-03-28T00:24:20.832Z,1014.22
2017-03-28T00:25:01.463Z,1014.22
2017-03-28T00:25:42.203Z,1014.22
2017-03-28T00:26:22.859Z,1014.2
2017-03-28T00:27:03.499Z,1014.21
2017-03-28T00:27:44.129Z,1014.19
2017-03-28T00:28:24.778Z,1014.19
2017-03-28T00:29:05.421Z,1014.21
2017-03-28T00:29:46.050Z,1014.18
2017-03-28T00:30:26.685Z,1014.2
2017-03-28T00:31:07.339Z,1014.18
2017-03-28T00:31:47.982Z,1014.19
2017-03-28T00:32:28.645Z,1014.18
2017-03-28T00:33:09.276Z,1014.16
2017-03-28T00:33:49.905Z,1014.15
2017-03-28T00:34:30.559Z,1014.22
2017-03-28T00:35:11.189Z,1014.21
2017-03-28T00:35:51.827Z,1014.21
2017-03-28T00:36:32.460Z,1014.2
2017-03-28T00:37:13.105Z,1014.24
2017-03-28T00:37:53.746Z,1014.19
2017-03-28T00:38:34.412Z,1014.22
2017-03-28T00:39:15.062Z,1014.21
2017-03-28T00:39:55.721Z,1014.22
2017-03-28T00:40:36.366Z,1014.18
2017-03-28T00:41:17.011Z,1014.18
2017-03-28T00:41:57.647Z,1014.16
2017-03-28T00:42:38.303Z,1014.18
2017-03-28T00:43:18.935Z,1014.16
2017-03-28T00:43:59.585Z,1014.15
2017-03-28T00:44:40.221Z,1014.12
2017-03-28T00:45:20.864Z,1014.09
2017-03-28T00:46:01.488Z,1014.11
2017-03-28T00:46:42.120Z,1014.16
2017-03-28T00:47:22.752Z,1014.12
2017-03-28T00:48:03.410Z,1014.15
2017-03-28T00:48:44.055Z,1014.15
2017-03-28T00:49:24.682Z,1014.12
2017-03-28T00:50:05.336Z,1014.15
2017-03-28T00:50:45.983Z,1014.13
2017-03-28T00:51:26.609Z,1014.16
2017-03-28T00:52:07.243Z,1014.14
2017-03-28T00:52:47.872Z,1014.14
2017-03-28T00:53:28.497Z,1014.14
2017-03-28T00:54:09.142Z,1014.13
2017-03-28T00:54:49.780Z,1014.11
2017-03-28T00:55:30.408Z,1014.15
2017-03-28T00:56:11.044Z,1014.14
2017-03-28T00:56:51.685Z,1014.11
2017-03-28T00:57:32.331Z,1014.14
2017-03-28T00:58:12.970Z,1014.14
2017-03-28T00:58:53.619Z,1014.12
2017-03-28T00:59:34.264Z,1014.13
2017-03-28T01:00:14.979Z,1014.15
2017-03-28T01:00:55.610Z,1014.13
2017-03-28T01:01:36.261Z,1014.16
2017-03-28T01:02:16.893Z,1014.14
2017-03-28T01:02:57.531Z,1014.15
2017-03-28T01:03:38.163Z,1014.15
2017-03-28T01:04:18.817Z,1014.16
2017-03-28T01:04:59.449Z,1014.18
2017-03-28T01:05:40.096Z,1014.17
2017-03-28T01:06:20.737Z,1014.14
2017-03-28T01:07:01.375Z,1014.16
2017-03-28T01:07:42.003Z,1014.19
2017-03-28T01:08:22.633Z,1014.18
2017-03-28T01:09:03.283Z,1014.21
2017-03-28T01:09:43.917Z,1014.14
2017-03-28T01:10:24.568Z,1014.21
2017-03-28T01:11:05.209Z,1014.19
2017-03-28T01:11:45.832Z,1014.19
2017-03-28T01:12:26.479Z,1014.21
2017-03-28T01:13:07.146Z,1014.21
2017-03-28T01:13:47.778Z,1014.19
2017-03-28T01:14:28.431Z,1014.24
2017-03-28T01:15:09.072Z,1014.23
2017-03-28T01:15:49.710Z,1014.23
2017-03-28T01:16:30.360Z,1014.22
2017-03-28T01:17:10.976Z,1014.23
2017-03-28T01:17:51.604Z,1014.22
2017-03-28T01:18:32.250Z,1014.24
2017-03-28T01:19:12.875Z,1014.25
2017-03-28T01:19:53.523Z,1014.22
2017-03-28T01:20:34.157Z,1014.24
2017-03-28T01:21:14.792Z,1014.27
2017-03-28T01:21:55.432Z,1014.2
2017-03-28T01:22:36.070Z,1014.19
2017-03-28T01:23:16.690Z,1014.2
2017-03-28T01:23:57.327Z,1014.19
2017-03-28T01:24:37.946Z,1014.19
2017-03-28T01:25:18.586Z,1014.21
2017-03-28T01:25:59.229Z,1014.19
2017-03-28T01:26:39.873Z,1014.18
2017-03-28T01:27:20.498Z,1014.16
2017-03-28T01:28:01.123Z,1014.18
2017-03-28T01:28:41.791Z,1014.14
2017-03-28T01:29:22.419Z,1014.14
2017-03-28T01:30:03.055Z,1014.18
2017-03-28T01:30:43.697Z,1014.18
2017-03-28T01:31:24.339Z,1014.17
2017-03-28T01:32:04.971Z,1014.17
2017-03-28T01:32:45.643Z,1014.17
2017-03-28T01:33:26.270Z,1014.15
2017-03-28T01:34:06.924Z,1014.15
2017-03-28T01:34:47.571Z,1014.17
2017-03-28T01:35:28.222Z,1014.17
2017-03-28T01:36:08.861Z,1014.16
2017-03-28T01:36:49.490Z,1014.17
2017-03-28T01:37:30.149Z,1014.12
2017-03-28T01:38:10.768Z,1014.13
2017-03-28T01:38:51.437Z,1014.13
2017-03-28T01:39:32.075Z,1014.1
2017-03-28T01:40:12.709Z,1014.1
2017-03-28T01:40:53.338Z,1014.1
2017-03-28T01:41:33.988Z,1014.09
2017-03-28T01:42:14.625Z,1014.11
2017-03-28T01:42:55.263Z,1014.1
2017-03-28T01:43:35.915Z,1014.07
2017-03-28T01:44:16.548Z,1014.07
2017-03-28T01:44:57.174Z,1014.1
2017-03-28T01:45:37.802Z,1014.1
2017-03-28T01:46:18.435Z,1014.12
2017-03-28T01:46:59.072Z,1014.09
2017-03-28T01:47:39.713Z,1014.07
2017-03-28T01:48:20.343Z,1014.05
2017-03-28T01:49:00.966Z,1014.03
2017-03-28T01:49:41.590Z,1014.05
2017-03-28T01:50:22.241Z,1014.01
2017-03-28T01:51:02.865Z,1014.04
2017-03-28T01:51:43.521Z,1014.08
2017-03-28T01:52:24.157Z,1014.04
2017-03-28T01:53:04.812Z,1014.07
2017-03-28T01:53:45.449Z,1014.08
2017-03-28T01:54:26.109Z,1014.08
2017-03-28T01:55:06.756Z,1014.08
2017-03-28T01:55:47.393Z,1014.09
2017-03-28T01:56:28.023Z,1014.09
2017-03-28T01:57:08.669Z,1014.14
2017-03-28T01:57:49.303Z,1014.11
2017-03-28T01:58:29.939Z,1014.12
2017-03-28T01:59:10.570Z,1014.11
2017-03-28T01:59:51.199Z,1014.13
2017-03-28T02:00:31.829Z,1014.12
2017-03-28T02:01:12.458Z,1014.13
2017-03-28T02:01:53.077Z,1014.14
2017-03-28T02:02:33.701Z,1014.11
2017-03-28T02:03:14.351Z,1014.12
2017-03-28T02:03:55.008Z,1014.13
2017-03-28T02:04:35.650Z,1014.12
2017-03-28T02:05:16.288Z,1014.11
2017-03-28T02:05:56.926Z,1014.1
2017-03-28T02:06:37.611Z,1014.1
2017-03-28T02:07:18.247Z,1014.12
2017-03-28T02:07:58.885Z,1014.11
2017-03-28T02:08:39.511Z,1014.12
2017-03-28T02:09:20.158Z,1014.13
2017-03-28T02:10:00.818Z,1014.1
2017-03-28T02:10:41.468Z,1014.1
2017-03-28T02:11:22.118Z,1014.09
2017-03-28T02:12:02.763Z,1014.07
2017-03-28T02:12:43.422Z,1014.04
2017-03-28T02:13:24.074Z,1014.04
2017-03-28T02:14:04.704Z,1014.03
2017-03-28T02:14:45.341Z,1014.02
2017-03-28T02:15:25.981Z,1014.06
2017-03-28T02:16:06.618Z,1014.08
2017-03-28T02:16:47.252Z,1014.05
2017-03-28T02:17:27.889Z,1014.08
2017-03-28T02:18:08.551Z,1014.05
2017-03-28T02:18:49.193Z,1014.06
2017-03-28T02:19:29.844Z,1014.08
2017-03-28T02:20:10.493Z,1014.08
2017-03-28T02:20:51.123Z,1014.09
2017-03-28T02:21:31.757Z,1014.1
2017-03-28T02:22:12.396Z,1014.09
2017-03-28T02:22:53.042Z,1014.08
2017-03-28T02:23:33.664Z,1014.09
2017-03-28T02:24:14.323Z,1014.11
2017-03-28T02:24:54.968Z,1014.09
2017-03-28T02:25:35.611Z,1014.06
2017-03-28T02:26:16.237Z,1014.07
2017-03-28T02:26:56.922Z,1014.07
2017-03-28T02:27:37.554Z,1014.04
2017-03-28T02:28:18.195Z,1014.06
2017-03-28T02:28:58.841Z,1014.07
2017-03-28T02:29:39.497Z,1014.04
2017-03-28T02:30:20.133Z,1014.06
2017-03-28T02:31:00.768Z,1014.04
2017-03-28T02:31:41.427Z,1014.05
2017-03-28T02:32:22.057Z,1014.04
2017-03-28T02:33:02.697Z,1014.02
2017-03-28T02:33:43.345Z,1014.04
2017-03-28T02:34:24.027Z,1014.05
2017-03-28T02:35:04.663Z,1014
2017-03-28T02:35:45.311Z,1014
2017-03-28T02:36:25.956Z,1014
2017-03-28T02:37:06.589Z,1013.98
2017-03-28T02:37:47.216Z,1013.96
2017-03-28T02:38:27.871Z,1013.97
2017-03-28T02:39:08.504Z,1013.97
2017-03-28T02:39:49.145Z,1013.95
2017-03-28T02:40:29.778Z,1013.92
2017-03-28T02:41:10.420Z,1013.95
2017-03-28T02:41:51.089Z,1013.95
2017-03-28T02:42:31.725Z,1013.94
2017-03-28T02:43:12.356Z,1013.95
2017-03-28T02:43:52.987Z,1013.94
2017-03-28T02:44:33.638Z,1013.94
2017-03-28T02:45:14.270Z,1013.88
2017-03-28T02:45:54.897Z,1013.94
2017-03-28T02:46:35.539Z,1013.9
2017-03-28T02:47:16.170Z,1013.91
2017-03-28T02:47:56.816Z,1013.89
2017-03-28T02:48:37.473Z,1013.87
2017-03-28T02:49:18.121Z,1013.9
2017-03-28T02:49:58.780Z,1013.9
2017-03-28T02:50:39.413Z,1013.89
2017-03-28T02:51:20.055Z,1013.9
2017-03-28T02:52:00.699Z,1013.94
2017-03-28T02:52:41.363Z,1013.88
2017-03-28T02:53:22.011Z,1013.93
2017-03-28T02:54:02.650Z,1013.91
2017-03-28T02:54:43.284Z,1013.92
2017-03-28T02:55:23.920Z,1013.92
2017-03-28T02:56:04.560Z,1013.93
2017-03-28T02:56:45.197Z,1013.95
2017-03-28T02:57:25.834Z,1013.92
2017-03-28T02:58:06.474Z,1013.9
2017-03-28T02:58:47.109Z,1013.91
2017-03-28T02:59:27.761Z,1013.85
2017-03-28T03:00:08.402Z,1013.83
2017-03-28T03:00:49.047Z,1013.82
2017-03-28T03:01:29.672Z,1013.83
2017-03-28T03:02:10.313Z,1013.82
2017-03-28T03:02:50.948Z,1013.8
2017-03-28T03:03:31.592Z,1013.82
2017-03-28T03:04:12.232Z,1013.81
2017-03-28T03:04:52.870Z,1013.8
2017-03-28T03:05:33.510Z,1013.81
2017-03-28T03:06:14.141Z,1013.82
2017-03-28T03:06:54.782Z,1013.78
2017-03-28T03:07:35.413Z,1013.82
2017-03-28T03:08:16.049Z,1013.81
2017-03-28T03:08:56.692Z,1013.77
2017-03-28T03:09:37.346Z,1013.8
2017-03-28T03:10:18.012Z,1013.77
2017-03-28T03:10:58.638Z,1013.77
2017-03-28T03:11:39.267Z,1013.77
2017-03-28T03:12:19.921Z,1013.78
2017-03-28T03:13:00.564Z,1013.8
2017-03-28T03:13:41.218Z,1013.77
2017-03-28T03:14:21.846Z,1013.78
2017-03-28T03:15:02.483Z,1013.77
2017-03-28T03:15:43.130Z,1013.79
2017-03-28T03:16:23.757Z,1013.78
2017-03-28T03:17:04.396Z,1013.78
2017-03-28T03:17:45.037Z,1013.75
2017-03-28T03:18:25.690Z,1013.72
2017-03-28T03:19:06.347Z,1013.75
2017-03-28T03:19:46.994Z,1013.75
2017-03-28T03:20:27.647Z,1013.77
2017-03-28T03:21:08.296Z,1013.73
2017-03-28T03:21:48.944Z,1013.72
2017-03-28T03:22:29.585Z,1013.69
2017-03-28T03:23:10.227Z,1013.69
2017-03-28T03:23:50.874Z,1013.7
2017-03-28T03:24:31.512Z,1013.74
2017-03-28T03:25:12.146Z,1013.69
2017-03-28T03:25:52.768Z,1013.72
2017-03-28T03:26:33.404Z,1013.72
2017-03-28T03:27:14.053Z,1013.7
2017-03-28T03:27:54.674Z,1013.7
2017-03-28T03:28:35.308Z,1013.71
2017-03-28T03:29:15.960Z,1013.7
2017-03-28T03:29:56.584Z,1013.7
2017-03-28T03:30:37.216Z,1013.74
2017-03-28T03:31:17.846Z,1013.72
2017-03-28T03:31:58.518Z,1013.68
2017-03-28T03:32:39.122Z,1013.71
2017-03-28T03:33:19.762Z,1013.69
2017-03-28T03:34:00.408Z,1013.7
2017-03-28T03:34:41.051Z,1013.71
2017-03-28T03:35:21.685Z,1013.75
2017-03-28T03:36:02.328Z,1013.73
2017-03-28T03:36:42.954Z,1013.75
2017-03-28T03:37:23.601Z,1013.7
2017-03-28T03:38:04.231Z,1013.71
2017-03-28T03:38:44.859Z,1013.73
2017-03-28T03:39:25.481Z,1013.74
2017-03-28T03:40:06.113Z,1013.69
2017-03-28T03:40:46.752Z,1013.76
2017-03-28T03:41:27.406Z,1013.71
2017-03-28T03:42:08.068Z,1013.73
2017-03-28T03:42:48.742Z,1013.75
2017-03-28T03:43:29.373Z,1013.74
2017-03-28T03:44:10.047Z,1013.8
2017-03-28T03:44:50.677Z,1013.78
2017-03-28T03:45:31.298Z,1013.78
2017-03-28T03:46:11.945Z,1013.8
2017-03-28T03:46:52.566Z,1013.77
2017-03-28T03:47:33.188Z,1013.75
2017-03-28T03:48:13.835Z,1013.76
2017-03-28T03:48:54.488Z,1013.75
2017-03-28T03:49:35.153Z,1013.79
2017-03-28T03:50:15.806Z,1013.74
2017-03-28T03:50:56.418Z,1013.76
2017-03-28T03:51:37.065Z,1013.79
2017-03-28T03:52:17.729Z,1013.8
2017-03-28T03:52:58.369Z,1013.8
2017-03-28T03:53:38.994Z,1013.83
2017-03-28T03:54:19.629Z,1013.86
2017-03-28T03:55:00.287Z,1013.88
2017-03-28T03:55:40.912Z,1013.86
2017-03-28T03:56:21.541Z,1013.88
2017-03-28T03:57:02.199Z,1013.88
2017-03-28T03:57:42.815Z,1013.88
2017-03-28T03:58:23.440Z,1013.89
2017-03-28T03:59:04.075Z,1013.89
2017-03-28T03:59:44.715Z,1013.91
2017-03-28T04:00:25.373Z,1013.93
2017-03-28T04:01:06.011Z,1013.92
2017-03-28T04:01:46.646Z,1013.94
2017-03-28T04:02:27.274Z,1013.93
2017-03-28T04:03:07.934Z,1013.92
2017-03-28T04:03:48.580Z,1013.91
2017-03-28T04:04:29.208Z,1013.91
2017-03-28T04:05:09.834Z,1013.89
2017-03-28T04:05:50.465Z,1013.88
2017-03-28T04:06:31.101Z,1013.87
2017-03-28T04:07:11.757Z,1013.86
2017-03-28T04:07:52.404Z,1013.9
2017-03-28T04:08:33.049Z,1013.89
2017-03-28T04:09:13.695Z,1013.87
2017-03-28T04:09:54.336Z,1013.89
2017-03-28T04:10:34.978Z,1013.89
2017-03-28T04:11:15.668Z,1013.9
2017-03-28T04:11:56.321Z,1013.89
2017-03-28T04:12:36.970Z,1013.91
2017-03-28T04:13:17.628Z,1013.91
2017-03-28T04:13:58.250Z,1013.94
2017-03-28T04:14:38.904Z,1013.9
2017-03-28T04:15:19.549Z,1013.91
2017-03-28T04:16:00.190Z,1013.9
2017-03-28T04:16:40.857Z,1013.93
2017-03-28T04:17:21.512Z,1013.96
2017-03-28T04:18:02.152Z,1013.9
2017-03-28T04:18:42.796Z,1013.96
2017-03-28T04:19:23.429Z,1013.92
2017-03-28T04:20:04.075Z,1013.94
2017-03-28T04:20:44.717Z,1013.93
2017-03-28T04:21:25.361Z,1013.95
2017-03-28T04:22:05.985Z,1013.92
2017-03-28T04:22:46.634Z,1013.92
2017-03-28T04:23:27.263Z,1013.92
2017-03-28T04:24:07.908Z,1013.91
2017-03-28T04:24:48.551Z,1013.89
2017-03-28T04:25:29.186Z,1013.91
2017-03-28T04:26:09.828Z,1013.92
2017-03-28T04:26:50.477Z,1013.93
2017-03-28T04:27:31.117Z,1013.91
2017-03-28T04:28:11.759Z,1013.91
2017-03-28T04:28:52.403Z,1013.93
2017-03-28T04:29:33.028Z,1013.95
2017-03-28T04:30:13.674Z,1013.99
2017-03-28T04:30:54.315Z,1013.96
2017-03-28T04:31:34.950Z,1013.99
2017-03-28T04:32:15.597Z,1014.01
2017-03-28T04:32:56.252Z,1013.98
2017-03-28T04:33:36.895Z,1013.98
2017-03-28T04:34:17.543Z,1013.98
2017-03-28T04:34:58.174Z,1014
2017-03-28T04:35:38.835Z,1013.98
2017-03-28T04:36:19.469Z,1013.95
2017-03-28T04:37:00.115Z,1013.94
2017-03-28T04:37:40.747Z,1013.96
2017-03-28T04:38:21.394Z,1013.95
2017-03-28T04:39:02.050Z,1014.02
2017-03-28T04:39:42.710Z,1013.99
2017-03-28T04:40:23.361Z,1013.97
2017-03-28T04:41:04.003Z,1013.99
2017-03-28T04:41:44.641Z,1013.96
2017-03-28T04:42:25.269Z,1014.01
2017-03-28T04:43:05.906Z,1013.97
2017-03-28T04:43:46.562Z,1014.02
2017-03-28T04:44:27.208Z,1014.01
2017-03-28T04:45:07.857Z,1014
2017-03-28T04:45:48.501Z,1014.02
2017-03-28T04:46:29.137Z,1014.02
2017-03-28T04:47:09.788Z,1014.01
2017-03-28T04:47:50.425Z,1014.03
2017-03-28T04:48:31.040Z,1014.04
2017-03-28T04:49:11.681Z,1014.01
2017-03-28T04:49:52.316Z,1014.04
2017-03-28T04:50:32.945Z,1014.04
2017-03-28T04:51:13.578Z,1014.04
2017-03-28T04:51:54.239Z,1014.05
2017-03-28T04:52:34.877Z,1014.04
2017-03-28T04:53:15.534Z,1014.08
2017-03-28T04:53:56.171Z,1014.06
2017-03-28T04:54:36.807Z,1014.08
2017-03-28T04:55:17.437Z,1014.04
2017-03-28T04:55:58.075Z,1014.1
2017-03-28T04:56:38.716Z,1014.11
2017-03-28T04:57:19.357Z,1014.12
2017-03-28T04:58:00.008Z,1014.09
2017-03-28T04:58:40.652Z,1014.1
2017-03-28T04:59:21.281Z,1014.1
2017-03-28T05:00:01.934Z,1014.09
2017-03-28T05:00:42.579Z,1014.08
2017-03-28T05:01:23.235Z,1014.13
2017-03-28T05:02:03.868Z,1014.11
2017-03-28T05:02:44.492Z,1014.12
2017-03-28T05:03:25.122Z,1014.11
2017-03-28T05:04:05.794Z,1014.11
2017-03-28T05:04:46.428Z,1014.11
2017-03-28T05:05:27.052Z,1014.08
2017-03-28T05:06:07.737Z,1014.09
2017-03-28T05:06:48.388Z,1014.11
2017-03-28T05:07:29.014Z,1014.11
2017-03-28T05:08:09.656Z,1014.15
2017-03-28T05:08:50.289Z,1014.15
2017-03-28T05:09:30.960Z,1014.16
2017-03-28T05:10:11.600Z,1014.14
2017-03-28T05:10:52.231Z,1014.12
2017-03-28T05:11:32.864Z,1014.12
2017-03-28T05:12:13.506Z,1014.14
2017-03-28T05:12:54.156Z,1014.11
2017-03-28T05:13:34.825Z,1014.13
2017-03-28T05:14:15.458Z,1014.14
2017-03-28T05:14:56.116Z,1014.15
2017-03-28T05:15:36.736Z,1014.13
2017-03-28T05:16:17.369Z,1014.13
2017-03-28T05:16:58.030Z,1014.17
2017-03-28T05:17:38.657Z,1014.18
2017-03-28T05:18:19.294Z,1014.15
2017-03-28T05:18:59.944Z,1014.16
2017-03-28T05:19:40.577Z,1014.15
2017-03-28T05:20:21.212Z,1014.2
2017-03-28T05:21:01.851Z,1014.23
2017-03-28T05:21:42.484Z,1014.2
2017-03-28T05:22:23.104Z,1014.23
2017-03-28T05:23:03.738Z,1014.24
2017-03-28T05:23:44.366Z,1014.21
2017-03-28T05:24:24.994Z,1014.21
2017-03-28T05:25:05.631Z,1014.22
2017-03-28T05:25:46.261Z,1014.25
2017-03-28T05:26:26.903Z,1014.25
2017-03-28T05:27:07.538Z,1014.18
2017-03-28T05:27:48.183Z,1014.21
2017-03-28T05:28:28.866Z,1014.24
2017-03-28T05:29:09.521Z,1014.24
2017-03-28T05:29:50.158Z,1014.27
2017-03-28T05:30:30.791Z,1014.31
2017-03-28T05:31:11.436Z,1014.27
2017-03-28T05:31:52.056Z,1014.26
2017-03-28T05:32:32.702Z,1014.27
2017-03-28T05:33:13.343Z,1014.31
2017-03-28T05:33:53.978Z,1014.27
2017-03-28T05:34:34.651Z,1014.31
2017-03-28T05:35:15.289Z,1014.26
2017-03-28T05:35:55.924Z,1014.29
2017-03-28T05:36:36.556Z,1014.3
2017-03-28T05:37:17.189Z,1014.31
2017-03-28T05:37:57.827Z,1014.28
2017-03-28T05:38:38.466Z,1014.27
2017-03-28T05:39:19.102Z,1014.28
2017-03-28T05:39:59.732Z,1014.3
2017-03-28T05:40:40.365Z,1014.33
2017-03-28T05:41:20.998Z,1014.3
2017-03-28T05:42:01.651Z,1014.35
2017-03-28T05:42:42.270Z,1014.33
2017-03-28T05:43:22.897Z,1014.34
2017-03-28T05:44:03.564Z,1014.32
2017-03-28T05:44:44.218Z,1014.35
2017-03-28T05:45:24.873Z,1014.33
2017-03-28T05:46:05.508Z,1014.39
2017-03-28T05:46:46.143Z,1014.41
2017-03-28T05:47:26.789Z,1014.37
2017-03-28T05:48:07.439Z,1014.42
2017-03-28T05:48:48.099Z,1014.44
2017-03-28T05:49:28.756Z,1014.48
2017-03-28T05:50:09.413Z,1014.47
2017-03-28T05:50:50.058Z,1014.48
2017-03-28T05:51:30.697Z,1014.49
2017-03-28T05:52:11.332Z,1014.48
2017-03-28T05:52:51.996Z,1014.54
2017-03-28T05:53:32.640Z,1014.53
2017-03-28T05:54:13.272Z,1014.53
2017-03-28T05:54:53.902Z,1014.51
2017-03-28T05:55:34.531Z,1014.5
2017-03-28T05:56:15.182Z,1014.46
2017-03-28T05:56:55.823Z,1014.46
2017-03-28T05:57:36.459Z,1014.41
2017-03-28T05:58:17.098Z,1014.45
2017-03-28T05:58:57.741Z,1014.44
2017-03-28T05:59:38.411Z,1014.44
2017-03-28T06:00:19.073Z,1014.4
2017-03-28T06:00:59.701Z,1014.42
2017-03-28T06:01:40.338Z,1014.41
2017-03-28T06:02:20.962Z,1014.38
2017-03-28T06:03:01.627Z,1014.35
2017-03-28T06:03:42.262Z,1014.39
2017-03-28T06:04:22.937Z,1014.42
2017-03-28T06:05:03.582Z,1014.43
2017-03-28T06:05:44.210Z,1014.47
2017-03-28T06:06:24.838Z,1014.46
2017-03-28T06:07:05.483Z,1014.46
2017-03-28T06:07:46.126Z,1014.44
2017-03-28T06:08:26.768Z,1014.49
2017-03-28T06:09:07.392Z,1014.52
2017-03-28T06:09:48.035Z,1014.47
2017-03-28T06:10:28.663Z,1014.47
2017-03-28T06:11:09.317Z,1014.51
2017-03-28T06:11:49.963Z,1014.49
2017-03-28T06:12:30.607Z,1014.47
2017-03-28T06:13:11.247Z,1014.51
2017-03-28T06:13:51.887Z,1014.48
2017-03-28T06:14:32.520Z,1014.47
2017-03-28T06:15:13.176Z,1014.48
2017-03-28T06:15:53.812Z,1014.46
2017-03-28T06:16:34.458Z,1014.46
2017-03-28T06:17:15.101Z,1014.5
2017-03-28T06:17:55.753Z,1014.47
2017-03-28T06:18:36.442Z,1014.45
2017-03-28T06:19:17.087Z,1014.48
2017-03-28T06:19:57.744Z,1014.5
2017-03-28T06:20:38.381Z,1014.45
2017-03-28T06:21:19.031Z,1014.49
2017-03-28T06:21:59.659Z,1014.52
2017-03-28T06:22:40.335Z,1014.53
2017-03-28T06:23:20.983Z,1014.56
2017-03-28T06:24:01.642Z,1014.56
2017-03-28T06:24:42.292Z,1014.56
2017-03-28T06:25:22.918Z,1014.56
2017-03-28T06:26:03.550Z,1014.53
2017-03-28T06:26:44.188Z,1014.56
2017-03-28T06:27:24.833Z,1014.57
2017-03-28T06:28:05.481Z,1014.55
2017-03-28T06:28:46.130Z,1014.58
2017-03-28T06:29:26.775Z,1014.59
2017-03-28T06:30:07.398Z,1014.59
2017-03-28T06:30:48.042Z,1014.58
2017-03-28T06:31:28.691Z,1014.61
2017-03-28T06:32:09.328Z,1014.65
2017-03-28T06:32:49.985Z,1014.68
2017-03-28T06:33:30.620Z,1014.61
2017-03-28T06:34:11.248Z,1014.64
2017-03-28T06:34:51.898Z,1014.64
2017-03-28T06:35:32.602Z,1014.64
2017-03-28T06:36:13.266Z,1014.66
2017-03-28T06:36:53.912Z,1014.66
2017-03-28T06:37:34.571Z,1014.66
2017-03-28T06:38:15.210Z,1014.68
2017-03-28T06:38:55.850Z,1014.66
2017-03-28T06:39:36.477Z,1014.7
2017-03-28T06:40:17.144Z,1014.72
2017-03-28T06:40:57.811Z,1014.71
2017-03-28T06:41:38.445Z,1014.73
2017-03-28T06:42:19.083Z,1014.74
2017-03-28T06:42:59.738Z,1014.75
2017-03-28T06:43:40.390Z,1014.78
2017-03-28T06:44:21.049Z,1014.8
2017-03-28T06:45:01.677Z,1014.83
2017-03-28T06:45:42.319Z,1014.79
2017-03-28T06:46:22.951Z,1014.85
2017-03-28T06:47:03.594Z,1014.89
2017-03-28T06:47:44.236Z,1014.91
2017-03-28T06:48:24.887Z,1014.9
2017-03-28T06:49:05.520Z,1014.9
2017-03-28T06:49:46.157Z,1014.94
2017-03-28T06:50:26.812Z,1014.93
2017-03-28T06:51:07.455Z,1014.93
2017-03-28T06:51:48.093Z,1014.96
2017-03-28T06:52:28.747Z,1014.97
2017-03-28T06:53:09.382Z,1014.94
2017-03-28T06:53:50.022Z,1014.97
2017-03-28T06:54:30.656Z,1014.95
2017-03-28T06:55:11.296Z,1014.93
2017-03-28T06:55:51.930Z,1014.95
2017-03-28T06:56:32.564Z,1014.96
2017-03-28T06:57:13.195Z,1014.98
2017-03-28T06:57:53.853Z,1014.97
2017-03-28T06:58:34.513Z,1015
2017-03-28T06:59:15.161Z,1014.97
2017-03-28T06:59:55.809Z,1014.99
2017-03-28T07:00:36.492Z,1015
2017-03-28T07:01:17.117Z,1015.03
2017-03-28T07:01:57.766Z,1015.01
2017-03-28T07:02:38.397Z,1015.03
2017-03-28T07:03:19.034Z,1015.04
2017-03-28T07:03:59.678Z,1015.09
2017-03-28T07:04:40.304Z,1015.08
2017-03-28T07:05:20.971Z,1015.08
2017-03-28T07:06:01.620Z,1015.05
2017-03-28T07:06:42.263Z,1015.09
2017-03-28T07:07:22.939Z,1015.1
2017-03-28T07:08:03.592Z,1015.09
2017-03-28T07:08:44.228Z,1015.14
2017-03-28T07:09:24.864Z,1015.17
2017-03-28T07:10:05.513Z,1015.17
2017-03-28T07:10:46.155Z,1015.22
2017-03-28T07:11:26.800Z,1015.19
2017-03-28T07:12:07.477Z,1015.23
2017-03-28T07:12:48.114Z,1015.22
2017-03-28T07:13:28.829Z,1015.27
2017-03-28T07:14:09.457Z,1015.28
2017-03-28T07:14:50.109Z,1015.29
2017-03-28T07:15:30.726Z,1015.32
2017-03-28T07:16:11.353Z,1015.33
2017-03-28T07:16:52.002Z,1015.29
2017-03-28T07:17:32.655Z,1015.36
2017-03-28T07:18:13.303Z,1015.33
2017-03-28T07:18:53.926Z,1015.34
2017-03-28T07:19:34.572Z,1015.37
2017-03-28T07:20:15.199Z,1015.36
2017-03-28T07:20:55.823Z,1015.38
2017-03-28T07:21:36.474Z,1015.42
2017-03-28T07:22:17.110Z,1015.4
2017-03-28T07:22:57.782Z,1015.43
2017-03-28T07:23:38.424Z,1015.42
2017-03-28T07:24:19.069Z,1015.4
2017-03-28T07:24:59.698Z,1015.44
2017-03-28T07:25:40.370Z,1015.42
2017-03-28T07:26:21.022Z,1015.44
2017-03-28T07:27:01.659Z,1015.44
2017-03-28T07:27:42.318Z,1015.43
2017-03-28T07:28:22.963Z,1015.44
2017-03-28T07:29:03.595Z,1015.46
2017-03-28T07:29:44.239Z,1015.46
2017-03-28T07:30:24.868Z,1015.46
2017-03-28T07:31:05.496Z,1015.47
2017-03-28T07:31:46.148Z,1015.49
2017-03-28T07:32:26.775Z,1015.47
2017-03-28T07:33:07.434Z,1015.47
2017-03-28T07:33:48.090Z,1015.5
2017-03-28T07:34:28.724Z,1015.5
2017-03-28T07:35:09.350Z,1015.53
2017-03-28T07:35:49.987Z,1015.52
2017-03-28T07:36:30.674Z,1015.58
2017-03-28T07:37:11.316Z,1015.53
2017-03-28T07:37:51.970Z,1015.58
2017-03-28T07:38:32.603Z,1015.57
2017-03-28T07:39:13.261Z,1015.55
2017-03-28T07:39:53.956Z,1015.54
2017-03-28T07:40:34.620Z,1015.55
2017-03-28T07:41:15.269Z,1015.55
2017-03-28T07:41:55.918Z,1015.57
2017-03-28T07:42:36.577Z,1015.58
2017-03-28T07:43:17.224Z,1015.59
2017-03-28T07:43:57.869Z,1015.62
2017-03-28T07:44:38.520Z,1015.6
2017-03-28T07:45:19.162Z,1015.62
2017-03-28T07:45:59.826Z,1015.62
2017-03-28T07:46:40.482Z,1015.65
2017-03-28T07:47:21.115Z,1015.63
2017-03-28T07:48:01.835Z,1015.65
2017-03-28T07:48:42.500Z,1015.67
2017-03-28T07:49:23.141Z,1015.68
2017-03-28T07:50:03.788Z,1015.68
2017-03-28T07:50:44.420Z,1015.68
2017-03-28T07:51:25.045Z,1015.7
2017-03-28T07:52:05.671Z,1015.7
2017-03-28T07:52:46.319Z,1015.73
2017-03-28T07:53:26.976Z,1015.72
2017-03-28T07:54:07.618Z,1015.74
2017-03-28T07:54:48.253Z,1015.75
2017-03-28T07:55:28.905Z,1015.78
2017-03-28T07:56:09.542Z,1015.75
2017-03-28T07:56:50.184Z,1015.76
2017-03-28T07:57:30.822Z,1015.74
2017-03-28T07:58:11.462Z,1015.76
2017-03-28T07:58:52.125Z,1015.72
2017-03-28T07:59:32.786Z,1015.74
2017-03-28T08:00:13.417Z,1015.78
2017-03-28T08:00:54.058Z,1015.76
2017-03-28T08:01:34.693Z,1015.79
2017-03-28T08:02:15.347Z,1015.79
2017-03-28T08:02:55.962Z,1015.81
2017-03-28T08:03:36.613Z,1015.83
2017-03-28T08:04:17.256Z,1015.85
2017-03-28T08:04:57.911Z,1015.87
2017-03-28T08:05:38.543Z,1015.87
2017-03-28T08:06:19.184Z,1015.89
2017-03-28T08:06:59.827Z,1015.88
2017-03-28T08:07:40.459Z,1015.91
2017-03-28T08:08:21.091Z,1015.91
2017-03-28T08:09:01.735Z,1015.88
2017-03-28T08:09:42.372Z,1015.92
2017-03-28T08:10:23.027Z,1015.89
2017-03-28T08:11:03.646Z,1015.9
2017-03-28T08:11:44.300Z,1015.86
2017-03-28T08:12:24.946Z,1015.89
2017-03-28T08:13:05.607Z,1015.89
2017-03-28T08:13:46.248Z,1015.9